Overton, Nevada Weather observations

Data are for observation ending at time listed.
 Day   Time    Ave.   Ave.  Ave.  Vector   Max.   Stn.    Total    Solar   Ave.  
  of    of     Air    Rel.  Wind   Wind    Wind   Baro.  Precip.   Rad.    Soil  
Year   Day     Temp.  Hum.  Speed  Dir.    Gust   Pres.                    Temp. 
2014   (PST)    F      %     mph   deg.    mph     mb.     in.     W/m2     F   
------------------------------------------------------------------------------
 211   21:00   99.1    15   13.4   319     22.3   966.4    0.00       0    98.8
 211   21:10   98.7    16   13.3   316     21.9   966.3    0.00       0    98.7
 211   21:20   98.5    16   12.7   311     20.8   966.3    0.00       0    98.5
 211   21:30   98.1    16   11.0   313     18.4   966.4    0.00       0    98.4
 211   21:40   97.7    16   10.3   314     16.7   966.5    0.00       0    98.3
 211   21:50   97.3    17   10.3   310     15.3   966.6    0.00       0    98.2
 211   22:00   97.0    18   11.0   307     18.3   966.6    0.00       0    98.0
 211   22:10   96.6    19    9.7   312     14.8   966.7    0.00       0    97.8
 211   22:20   96.3    20   10.3   317     19.8   966.8    0.00       0    97.7
 211   22:30   95.5    21    8.3   328     14.0   967.0    0.00       0    97.5
 211   22:40   94.7    22    9.5   322     14.3   967.0    0.00       0    97.3
 211   22:50   94.9    22   10.7   312     17.2   967.0    0.00       0    97.1
 211   23:00   94.5    22    8.5   317     11.9   967.1    0.00       0    96.9
 211   23:10   93.7    22    6.9   321     11.7   967.1    0.00       0    96.7
 211   23:20   93.0    23    6.8   332     11.0   967.1    0.00       0    96.5
 211   23:30   92.9    23    5.3   326      8.3   967.0    0.00       0    96.3
 211   23:40   93.1    23    6.0   317     10.8   966.8    0.00       0    96.1
 211   23:50   92.3    24    4.7   308      8.4   966.8    0.00       0    95.9
 212    0:00   92.2    24    4.6   321      8.1   966.8    0.00       0    95.7
 212    0:10   90.4    26    4.7   354      7.5   966.9    0.00       0    95.5
 212    0:20   90.7    25    3.4   313      7.2   966.9    0.00       0    95.3
 212    0:30   89.0    28    3.9   344      6.1   966.9    0.00       0    95.0
 212    0:40   88.3    28    4.2   333      5.8   966.9    0.00       0    94.8
 212    0:50   88.1    28    3.9   336      6.4   966.9    0.00       0    94.6
 212    1:00   87.7    28    4.6   332      6.6   966.7    0.00       0    94.3
 212    1:10   88.3    28    4.8   328      8.4   966.7    0.00       0    94.1
 212    1:20   88.6    27    5.4   335      7.0   966.8    0.00       0    93.8
 212    1:30   88.9    27    5.4   325      8.3   966.8    0.00       0    93.7
 212    1:40   88.5    27    5.2   326      7.5   966.7    0.00       0    93.5
 212    1:50   87.6    28    4.8   335      7.3   966.7    0.00       0    93.4
 212    2:00   87.2    28    4.2   316      5.7   966.5    0.00       0    93.2
 212    2:10   86.1    30    4.2   334      5.5   966.4    0.00       0    93.0
 212    2:20   85.9    30    3.4   317      5.7   966.3    0.00       0    92.8
 212    2:30   85.2    30    3.5   320      5.8   966.2    0.00       0    92.6
 212    2:40   85.9    30    1.8   297      4.1   966.2    0.00       0    92.4
 212    2:50   84.7    31    2.8   338      4.1   966.1    0.00       0    92.2
 212    3:00   83.7    32    2.7   336      3.7   966.1    0.00       0    91.9
 212    3:10   84.5    31    2.3   327      3.0   966.1    0.00       0    91.7
 212    3:20   84.5    31    1.5   308      2.9   966.2    0.00       0    91.6
 212    3:30   84.1    32    1.6   298      3.0   966.2    0.00       0    91.4
 212    3:40   84.1    32    1.6   288      3.4   966.2    0.00       0    91.2
 212    3:50   82.7    33    0.9   298      2.0   966.3    0.00       0    91.0
 212    4:00   82.7    33    0.5   261      1.5   966.4    0.00       0    90.8
 212    4:10   82.5    34    0.2   262      1.2   966.4    0.00       0    90.7
 212    4:20   82.2    34    0.8   203      1.5   966.5    0.00       0    90.5
 212    4:30   81.8    35    0.2   246      1.2   966.5    0.00       0    90.3
 212    4:40   80.1    37    0.9   261      2.1   966.6    0.00       3    90.2
 212    4:50   79.9    38    0.8   259      2.0   966.6    0.00       4    90.0
 212    5:00   80.1    37    0.6   274      2.0   966.7    0.00      12    89.8
 212    5:10   80.7    35    1.8   299      2.4   966.7    0.00      30    89.7
 212    5:20   82.4    33    1.7   289      2.7   966.8    0.00      43    89.8
 212    5:30   82.3    33    0.3   278      1.5   966.9    0.00      43    89.9
 212    5:40   81.8    36    0.4   316      1.5   967.1    0.00      67    90.0
 212    5:50   81.9    37    1.1   308      1.8   967.1    0.00     122    90.2
 212    6:00   83.9    35    1.0   294      2.6   967.2    0.00     144    90.8
 212    6:10   86.3    32    1.4   300      2.7   967.4    0.00     151    91.5
 212    6:20   87.9    29    1.3   304      2.6   967.6    0.00     153    92.3
 212    6:30   88.0    29    2.3   301      4.5   967.7    0.00     196    92.9
 212    6:40   88.5    28    2.3   300      3.9   967.9    0.00     197    93.7
 212    6:50   89.3    28    2.7   321      5.7   968.1    0.00     280    94.5
 212    7:00   90.0    27    4.0   331      6.7   968.2    0.00     305    95.4
 212    7:10   91.0    27    4.4   335      7.3   968.3    0.00     354    96.4
 212    7:20   92.0    26    5.0   340      8.3   968.5    0.00     392    97.4
 212    7:30   92.6    25    6.5   333     11.2   968.6    0.00     373    98.5
 212    7:40   93.0    23    6.6   332      9.9   968.7    0.00     419    99.3
 212    7:50   93.8    22    5.9   322      8.1   968.7    0.00     470    100.2
 212    8:00   94.5    21    5.0   314      7.7   968.8    0.00     487    101.3
 212    8:10   95.5    21    3.6   331      8.0   968.9    0.00     510    102.5
 212    8:20   95.9    20    2.8   307      7.6   969.0    0.00     534    103.7
 212    8:30   96.6    20    3.6   327      7.7   969.0    0.00     557    105.0
 212    8:40   96.5    20    3.6   300      8.0   969.1    0.00     581    106.1
 212    8:50   97.6    19    4.3   323      7.7   969.1    0.00     276    107.3
 212    9:00   97.8    19    3.6   312      8.5   969.1    0.00     255    108.4
 212    9:10   98.0    19    3.2   299      6.5   969.2    0.00      53    109.5
 212    9:20   99.4    18    3.8   337      6.9   969.2    0.00     473    110.5
 212    9:30   99.5    18    3.1   316      6.8   969.2    0.00     659    111.5
 212    9:40  101.3    17    2.6   300      8.0   969.2    0.00     624    112.5
 212    9:50  100.9    16    2.1   278      6.4   969.3    0.00     561    113.6
 212   10:00  100.9    16    3.9   319      7.9   969.3    0.00     592    114.6
 212   10:10  101.4    16    4.3   298      8.6   969.2    0.00     547    115.3
 212   10:20  101.2    16    3.2     6      7.7   969.2    0.00     346    116.0
 212   10:30  101.9    16    3.7   313      7.6   969.1    0.00     783    116.7
 212   10:40  102.6    15    1.9   235      8.0   969.0    0.00     795    117.4
 212   10:50  102.8    15    2.0   186      4.5   968.9    0.00     806    117.8
 212   11:00  102.6    15    2.4   147      5.0   968.9    0.00     814    117.3
 212   11:10  104.7    15    1.9    22      6.2   968.8    0.00     820    117.2
 212   11:20  104.3    15    3.8    78      6.6   968.7    0.00     825    116.4
 212   11:30  104.7    15    3.5    62      8.2   968.6    0.00     830    115.1
 212   11:40  104.5    14    3.9   342      8.8   968.5    0.00     835    114.4
 212   11:50  104.8    14    4.3   357      7.7   968.3    0.00     837    113.9
 212   12:00  105.7    14    2.2   113      6.4   968.2    0.00     843    113.6
 212   12:10  106.1    14    4.0    43      8.6   968.1    0.00     843    113.0
 212   12:20  106.8    13    3.7    81      7.4   967.9    0.00     844    112.2
 212   12:30  107.1    13    4.4    81      8.0   967.8    0.00     851    111.7
 212   12:40  107.2    13    4.1    67      7.4   967.6    0.00     831    111.8
 212   12:50  108.1    13    4.2   168     11.0   967.4    0.00     818    112.2
 212   13:00  107.7    13    6.4   200     10.4   967.4    0.00     715    112.5
 212   13:10  107.1    12    4.5   182      9.9   967.2    0.00     804    112.5
 212   13:20  108.3    12    2.0     0      8.0   966.9    0.00     713    112.6
 212   13:30  108.7    12    3.1   175     10.4   966.9    0.00     724    112.5
 212   13:40  108.9    12    3.7   237      7.0   966.8    0.00     723    112.2
 212   13:50  108.7    12    4.3   166     12.3   966.7    0.00     646    111.7
 212   14:00  109.0    12    2.5   145      7.8   966.6    0.00     759    111.2
 212   14:10  109.5    12    3.7   136      9.6   966.4    0.00     708    110.8
 212   14:20  109.2    12    4.6   146      9.9   966.3    0.00     569    110.4
 212   14:30  109.2    12    3.4   112      7.2   966.1    0.00     429    110.1
 212   14:40  108.8    12    3.9   115      9.0   966.0    0.00     407    109.8
 212   14:50  109.6    12    3.9   133      9.9   965.8    0.00     659    109.5
 212   15:00  109.5    12    3.8    95      8.3   965.7    0.00     528    109.4
 212   15:10  109.9    12    5.1   208     13.4   965.5    0.00     493    109.2
 212   15:20  109.6    11    4.7   199      9.9   965.4    0.00     450    109.1
 212   15:30  109.4    12    7.2   151     15.3   965.3    0.00     444    109.0
 212   15:40  109.5    12    3.6   125      7.7   965.3    0.00     437    108.8
 212   15:50  109.8    11    6.2   215     16.5   965.1    0.00     305    108.7
 212   16:00  109.4    11    6.3   216     13.2   965.1    0.00     278    108.6
 212   16:10  109.5    11    5.2   221     14.4   964.9    0.00     264    108.5
 212   16:20  109.5    11    5.6   218     10.0   964.7    0.00     198    108.4
 212   16:30  109.9    10    5.2   234     13.2   964.5    0.00     268    108.3
 212   16:40  109.4    10    8.6   230     16.7   964.3    0.00     166    108.3
 212   16:50  109.0    10    7.7   201     13.2   964.1    0.00     181    108.2
 212   17:00  109.2    10    7.0   210     11.8   963.9    0.00     237    108.0
 212   17:10  109.0    11    7.6   195     14.6   963.8    0.00     133    108.0
 212   17:20  108.6    11    6.8   187     13.0   963.7    0.00     132    107.8
 212   17:30  108.0    11    7.3   179     12.2   963.6    0.00      84    107.6
 212   17:40  108.2    11    4.1   208      7.7   963.6    0.00      75    107.3
 212   17:50  107.9    10    5.5   204     11.0   963.6    0.00      48    107.0
 212   18:00  107.6    10    4.7   214      8.0   963.5    0.00      34    106.7
 212   18:10  107.4    10    3.7   208      7.8   963.4    0.00      46    106.3
 212   18:20  107.3    11    4.7   205      9.2   963.4    0.00      25    105.9
 212   18:30  106.8    11    5.2   190     10.4   963.3    0.00      16    105.5
 212   18:40  106.6    11    6.1   188     11.3   963.3    0.00       7    105.2
 212   18:50  105.9    11    3.9   195      6.6   963.4    0.00       3    104.9
 212   19:00  105.8    11    3.2   200      4.8   963.4    0.00       1    104.5
 212   19:10  104.9    11    2.4   186      4.2   963.5    0.00       0    104.2
 212   19:20  104.1    12    3.1   175      5.8   963.4    0.00       0    103.9
 212   19:30  104.4    11    4.3   182      8.4   963.6    0.00       0    103.5
 212   19:40  104.5    11    3.6   186      6.2   963.8    0.00       0    103.2
 212   19:50  103.3    12    6.7   311     20.8   964.2    0.00       0    103.0
 212   20:00  100.7    14   11.9   359     18.2   964.3    0.00       0    102.8
 212   20:10  101.4    14   12.9     6     19.1   964.5    0.00       0    102.5
 212   20:20  100.9    14   10.3    14     21.0   964.6    0.00       0    102.3
 212   20:30  101.1    14    6.2    29     15.7   964.8    0.00       0    102.1
 212   20:40   99.3    18   14.7    24     32.2   964.9    0.00       0    101.9
 212   20:50   97.4    20   17.2    31     27.7   965.2    0.00       0    101.6

Return to Overton, Nevada graphs page.


Western Regional Climate Center,wrcc@dri.edu